Time;durP1;ratioP1;P1;durP2;ratioP2;P2;SDS_P1;SDS_P2;PMS_P1;PMS_P2;Temp;Humidity;BMP_temperature;BMP_pressure;BME280_temperature;BME280_humidity;BME280_pressure;Samples;Min_cycle;Max_cycle;Signal;HPM_P1;HPM_P2
2023/01/19 00:02:19;;;;;;;10.27;7.05;;;1.70;99.90;;;;;;5024672;28;20032;-81
2023/01/19 00:04:45;;;;;;;10.38;6.75;;;1.70;99.90;;;;;;5020091;28;20061;-81
2023/01/19 00:07:11;;;;;;;12.25;8.20;;;1.70;99.90;;;;;;5017391;28;20025;-82
2023/01/19 00:09:37;;;;;;;12.73;7.88;;;1.80;99.90;;;;;;5007521;28;20030;-81
2023/01/19 00:12:03;;;;;;;14.68;8.45;;;1.80;99.90;;;;;;5027884;28;20029;-81
2023/01/19 00:14:29;;;;;;;13.00;7.38;;;1.80;99.90;;;;;;5005486;28;20497;-82
2023/01/19 00:16:55;;;;;;;13.02;7.57;;;1.80;99.90;;;;;;5018590;28;20026;-82
2023/01/19 00:19:21;;;;;;;12.40;7.57;;;1.80;99.90;;;;;;5017408;28;20430;-81
2023/01/19 00:21:47;;;;;;;8.10;6.68;;;1.90;99.90;;;;;;5039181;28;20034;-80
2023/01/19 00:24:13;;;;;;;15.07;9.73;;;1.80;99.90;;;;;;5015323;28;20067;-81
2023/01/19 00:26:41;;;;;;;13.50;7.97;;;1.90;99.90;;;;;;5035172;28;20030;-81
2023/01/19 00:29:09;;;;;;;12.98;7.15;;;1.90;99.90;;;;;;5024087;28;20112;-81
2023/01/19 00:31:35;;;;;;;12.82;8.02;;;1.90;99.90;;;;;;5025720;28;20022;-80
2023/01/19 00:34:02;;;;;;;9.15;6.50;;;2.00;99.90;;;;;;5017126;28;20030;-81
2023/01/19 00:36:27;;;;;;;15.38;7.50;;;2.00;99.90;;;;;;5007458;28;20048;-80
2023/01/19 00:38:53;;;;;;;9.07;6.68;;;2.00;99.90;;;;;;5019444;28;20473;-81
2023/01/19 00:42:38;;;;;;;16.42;9.40;;;1.90;99.90;;;;;;5017320;28;20026;-81
2023/01/19 00:44:04;;;;;;;12.65;7.38;;;2.00;99.90;;;;;;5014747;28;20136;-82
2023/01/19 00:46:30;;;;;;;15.52;9.70;;;2.00;99.90;;;;;;5019751;28;20116;-82
2023/01/19 00:48:56;;;;;;;14.75;8.85;;;2.10;99.90;;;;;;5016449;28;20057;-81
2023/01/19 00:51:22;;;;;;;11.77;8.02;;;2.00;99.90;;;;;;5007612;28;20034;-80
2023/01/19 00:53:47;;;;;;;10.00;7.15;;;2.10;99.90;;;;;;5024415;28;20026;-81
2023/01/19 00:56:13;;;;;;;11.10;7.60;;;2.10;99.90;;;;;;5009688;28;20493;-81
2023/01/19 00:58:38;;;;;;;11.73;7.80;;;2.10;99.90;;;;;;5022175;28;20021;-80
2023/01/19 01:01:04;;;;;;;13.18;8.30;;;2.10;99.90;;;;;;5015618;28;20021;-81
2023/01/19 01:03:31;;;;;;;10.75;7.80;;;2.10;99.90;;;;;;5034977;28;20506;-82
2023/01/19 01:05:57;;;;;;;13.13;8.80;;;2.10;99.90;;;;;;5018652;28;20394;-81
2023/01/19 01:08:23;;;;;;;9.70;7.10;;;2.10;99.90;;;;;;5018053;28;20052;-81
2023/01/19 01:10:50;;;;;;;14.13;8.18;;;2.00;99.90;;;;;;5031158;28;20026;-80
2023/01/19 01:13:15;;;;;;;12.20;7.90;;;2.00;99.90;;;;;;5004450;28;20305;-80
2023/01/19 01:15:42;;;;;;;13.52;8.15;;;2.00;99.90;;;;;;5021174;28;20153;-81
2023/01/19 01:18:08;;;;;;;10.15;7.45;;;2.00;99.90;;;;;;5019246;28;20033;-81
2023/01/19 01:20:35;;;;;;;13.05;8.35;;;2.00;99.90;;;;;;5017377;28;20076;-79
2023/01/19 01:23:01;;;;;;;12.38;8.20;;;2.00;99.90;;;;;;5036267;28;20025;-80
2023/01/19 01:25:29;;;;;;;11.43;7.65;;;2.00;99.90;;;;;;5021442;28;20478;-82
2023/01/19 01:27:55;;;;;;;13.05;7.93;;;2.00;99.90;;;;;;5012863;28;20030;-81
2023/01/19 01:30:22;;;;;;;13.80;9.00;;;2.00;99.90;;;;;;5021998;28;20487;-82
2023/01/19 01:32:48;;;;;;;12.35;8.80;;;2.00;99.90;;;;;;5030482;28;20044;-81
2023/01/19 01:35:14;;;;;;;13.10;9.25;;;2.00;99.90;;;;;;5021620;28;20478;-81
2023/01/19 01:37:41;;;;;;;11.60;8.00;;;2.10;99.90;;;;;;5007566;28;20172;-81
2023/01/19 01:40:10;;;;;;;14.80;8.80;;;2.10;99.90;;;;;;5022220;28;20051;-81
2023/01/19 01:42:36;;;;;;;12.88;8.57;;;2.10;99.90;;;;;;5007049;28;20037;-80
2023/01/19 01:45:06;;;;;;;13.90;8.75;;;2.10;99.90;;;;;;5007511;28;20030;-80
2023/01/19 01:47:36;;;;;;;;;;;2.10;99.90;;;;;;5021491;28;20057;-80
2023/01/19 01:50:16;;;;;;;12.00;9.13;;;2.10;99.90;;;;;;5015244;28;19918;-81
2023/01/19 01:52:46;;;;;;;13.00;7.78;;;2.10;99.90;;;;;;5019640;28;20052;-81
2023/01/19 01:55:13;;;;;;;11.68;7.68;;;2.10;99.90;;;;;;5019011;28;20072;-81
2023/01/19 01:57:45;;;;;;;12.23;8.70;;;2.20;99.90;;;;;;5016703;28;20033;-80
2023/01/19 02:00:11;;;;;;;13.82;9.25;;;2.10;99.90;;;;;;5018774;28;20034;-80
2023/01/19 02:02:53;;;;;;;11.50;7.95;;;2.10;99.90;;;;;;5017362;28;20109;-81
2023/01/19 02:05:22;;;;;;;12.68;8.60;;;2.10;99.90;;;;;;5008502;28;20106;-80
2023/01/19 02:13:38;;;;;;;15.35;10.68;;;2.10;99.90;;;;;;5017477;28;20433;-80
2023/01/19 02:16:08;;;;;;;14.90;10.13;;;2.10;99.90;;;;;;5023615;28;20473;-80
2023/01/19 02:18:36;;;;;;;16.60;10.10;;;2.10;99.90;;;;;;5018029;28;20393;-81
2023/01/19 02:21:18;;;;;;;17.50;10.35;;;2.10;99.90;;;;;;5018799;28;20117;-81
2023/01/19 02:23:53;;;;;;;14.82;11.18;;;2.00;99.90;;;;;;5008030;28;20037;-81
2023/01/19 02:26:29;;;;;;;14.70;10.05;;;1.90;99.90;;;;;;5037612;28;20042;-81
2023/01/19 02:28:59;;;;;;;15.80;11.60;;;1.70;99.90;;;;;;5026576;28;20039;-81
2023/01/19 02:31:25;;;;;;;17.20;11.02;;;1.70;99.90;;;;;;5018135;28;20026;-81
2023/01/19 02:33:51;;;;;;;16.95;11.90;;;1.60;99.90;;;;;;5018173;28;20037;-81
2023/01/19 02:36:24;;;;;;;15.25;10.63;;;1.50;99.90;;;;;;5019051;28;20026;-80
2023/01/19 02:38:55;;;;;;;11.98;8.68;;;1.60;99.90;;;;;;5033627;28;20021;-81
2023/01/19 02:41:29;;;;;;;13.38;10.32;;;1.50;99.90;;;;;;5020471;28;20038;-81
2023/01/19 02:43:57;;;;;;;14.10;9.05;;;1.50;99.90;;;;;;5035622;28;20060;-81
2023/01/19 02:46:23;;;;;;;13.10;9.20;;;1.50;99.90;;;;;;5037407;28;20381;-81
2023/01/19 02:48:49;;;;;;;11.43;8.57;;;1.50;99.90;;;;;;5023148;28;20576;-81
2023/01/19 02:51:19;;;;;;;12.38;8.70;;;1.40;99.90;;;;;;5021122;28;20034;-82
2023/01/19 02:54:03;;;;;;;12.35;9.57;;;1.30;99.90;;;;;;5034437;28;20049;-81
2023/01/19 02:56:47;;;;;;;12.30;8.65;;;1.10;99.90;;;;;;5020990;28;20025;-80
2023/01/19 02:59:15;;;;;;;13.88;9.82;;;1.00;99.90;;;;;;5030272;28;20042;-81
2023/01/19 03:02:10;;;;;;;10.90;7.93;;;1.00;99.90;;;;;;5018790;28;20029;-79
2023/01/19 03:05:21;;;;;;;14.55;9.80;;;1.10;99.90;;;;;;5023323;28;20151;-81
2023/01/19 03:07:53;;;;;;;12.30;8.90;;;1.20;99.90;;;;;;5016388;28;20044;-79
2023/01/19 03:10:33;;;;;;;15.27;8.95;;;1.30;99.90;;;;;;5007784;28;20076;-81
2023/01/19 03:13:17;;;;;;;10.93;8.43;;;1.30;99.90;;;;;;5023347;28;20033;-81
2023/01/19 03:15:53;;;;;;;11.13;7.85;;;1.30;99.90;;;;;;5032919;28;20033;-81
2023/01/19 03:18:23;;;;;;;11.25;8.90;;;1.30;99.90;;;;;;5018223;28;20037;-81
2023/01/19 03:20:52;;;;;;;10.75;7.32;;;1.30;99.90;;;;;;5019837;28;20026;-80
2023/01/19 03:23:20;;;;;;;10.55;7.28;;;1.40;99.90;;;;;;5022936;28;20394;-81
2023/01/19 03:25:48;;;;;;;12.13;7.90;;;1.40;99.90;;;;;;5019939;28;20088;-83
2023/01/19 03:28:18;;;;;;;10.35;7.60;;;1.40;99.90;;;;;;5017319;28;20038;-83
2023/01/19 03:30:51;;;;;;;8.77;7.70;;;1.40;99.90;;;;;;5021213;28;20040;-81
2023/01/19 03:33:26;;;;;;;8.85;7.57;;;1.40;99.90;;;;;;5034572;28;20069;-81
2023/01/19 03:35:56;;;;;;;10.60;7.93;;;1.40;99.90;;;;;;5020861;28;20025;-80
2023/01/19 03:38:26;;;;;;;8.48;7.03;;;1.40;99.90;;;;;;5018630;28;20041;-81
2023/01/19 03:40:57;;;;;;;9.32;6.50;;;1.40;99.90;;;;;;5023024;28;20049;-81
2023/01/19 03:43:26;;;;;;;10.40;7.20;;;1.30;99.90;;;;;;5002405;28;20399;-81
2023/01/19 03:45:52;;;;;;;8.48;6.57;;;1.20;99.90;;;;;;5018599;28;20056;-80
2023/01/19 03:48:20;;;;;;;9.20;6.50;;;1.10;99.90;;;;;;5004811;28;20050;-81
2023/01/19 03:50:46;;;;;;;8.80;6.70;;;1.00;99.90;;;;;;5019887;28;20082;-80
2023/01/19 03:53:14;;;;;;;8.75;7.18;;;1.00;99.90;;;;;;5016621;28;20111;-80
2023/01/19 03:55:43;;;;;;;8.15;6.85;;;0.90;99.90;;;;;;5026796;28;20026;-80
2023/01/19 03:58:09;;;;;;;6.03;5.30;;;0.90;99.90;;;;;;5025893;28;20167;-80
2023/01/19 04:00:35;;;;;;;6.20;5.43;;;0.90;99.90;;;;;;5019513;28;20033;-81
2023/01/19 04:03:02;;;;;;;5.03;4.50;;;0.90;99.90;;;;;;5017931;28;20034;-79
2023/01/19 04:05:28;;;;;;;5.00;4.50;;;0.90;99.90;;;;;;5028196;28;20482;-80
2023/01/19 04:07:54;;;;;;;5.43;4.40;;;0.90;99.90;;;;;;5018480;28;20040;-79
2023/01/19 04:10:21;;;;;;;4.72;3.83;;;0.80;99.90;;;;;;5001884;28;20029;-81
2023/01/19 04:12:48;;;;;;;5.38;3.78;;;0.80;99.90;;;;;;5019939;28;20026;-79
2023/01/19 04:15:14;;;;;;;5.10;4.00;;;0.80;99.90;;;;;;5003580;28;20038;-80
2023/01/19 04:17:40;;;;;;;4.18;3.78;;;0.80;99.90;;;;;;5009157;28;20032;-80
2023/01/19 04:20:07;;;;;;;4.95;2.75;;;0.80;99.90;;;;;;5018629;28;20040;-79
2023/01/19 04:22:33;;;;;;;5.38;3.08;;;0.70;99.90;;;;;;5008311;28;20041;-79
2023/01/19 04:24:59;;;;;;;3.75;2.85;;;0.80;99.90;;;;;;5018126;28;20033;-79
2023/01/19 04:27:24;;;;;;;4.45;2.90;;;0.80;99.90;;;;;;5016127;28;20026;-79
2023/01/19 04:29:51;;;;;;;3.35;2.95;;;0.80;99.90;;;;;;5018441;28;20037;-79
2023/01/19 04:32:16;;;;;;;3.53;2.42;;;0.90;99.90;;;;;;5017553;28;20017;-80
2023/01/19 04:34:42;;;;;;;4.95;2.63;;;0.90;99.90;;;;;;5018663;28;20133;-80
2023/01/19 04:37:08;;;;;;;3.75;1.73;;;0.90;99.90;;;;;;5019926;28;21190;-79
2023/01/19 04:39:34;;;;;;;2.53;1.20;;;0.90;99.90;;;;;;5017088;28;21884;-80
2023/01/19 04:42:00;;;;;;;2.80;1.00;;;0.90;99.90;;;;;;5031236;28;20069;-80
2023/01/19 04:44:26;;;;;;;2.70;1.15;;;0.90;99.90;;;;;;5016938;28;20030;-79
2023/01/19 04:46:52;;;;;;;3.78;1.17;;;0.90;99.90;;;;;;5035362;28;20025;-80
2023/01/19 04:49:18;;;;;;;2.67;0.80;;;0.90;99.90;;;;;;5032851;28;20046;-79
2023/01/19 04:51:44;;;;;;;2.60;0.93;;;0.90;99.90;;;;;;5008696;28;20052;-80
2023/01/19 04:54:09;;;;;;;2.10;0.80;;;1.00;99.90;;;;;;5017929;28;20029;-80
2023/01/19 04:56:35;;;;;;;2.45;1.10;;;0.90;99.90;;;;;;5021458;28;20457;-81
2023/01/19 04:59:01;;;;;;;2.60;0.98;;;1.00;99.90;;;;;;5022211;28;20037;-80
2023/01/19 05:01:27;;;;;;;6.68;1.30;;;1.00;99.90;;;;;;5005160;28;20025;-81
2023/01/19 05:03:52;;;;;;;2.75;1.15;;;1.00;99.90;;;;;;5017637;28;20495;-82
2023/01/19 05:06:18;;;;;;;3.10;1.10;;;1.00;99.90;;;;;;5022479;28;20398;-81
2023/01/19 05:08:44;;;;;;;2.42;0.98;;;1.10;99.90;;;;;;5024528;28;20026;-79
2023/01/19 05:11:09;;;;;;;6.22;1.15;;;1.00;99.90;;;;;;5015214;28;20563;-81
2023/01/19 05:13:35;;;;;;;2.55;0.70;;;1.10;99.90;;;;;;5021246;28;20396;-80
2023/01/19 05:16:01;;;;;;;3.45;1.00;;;1.00;99.90;;;;;;5023101;28;20522;-81
2023/01/19 05:18:28;;;;;;;2.53;0.85;;;1.00;99.90;;;;;;5018854;28;20033;-81
2023/01/19 05:20:54;;;;;;;2.15;0.57;;;1.00;99.90;;;;;;5002743;28;20041;-80
2023/01/19 05:23:20;;;;;;;1.98;0.60;;;1.00;99.90;;;;;;5025095;28;20057;-81
2023/01/19 05:25:46;;;;;;;1.73;0.50;;;1.00;99.90;;;;;;5033777;28;20107;-81
2023/01/19 05:28:12;;;;;;;2.20;0.77;;;1.10;99.90;;;;;;5019765;28;20076;-80
2023/01/19 05:30:37;;;;;;;3.05;1.10;;;1.10;99.90;;;;;;5022312;28;20119;-81
2023/01/19 05:33:03;;;;;;;4.10;0.88;;;1.10;99.90;;;;;;5016850;28;20038;-82
2023/01/19 05:35:29;;;;;;;3.20;1.08;;;1.20;99.90;;;;;;5020545;28;20060;-82
2023/01/19 05:37:54;;;;;;;3.63;1.27;;;1.20;99.90;;;;;;5019698;28;20026;-81
2023/01/19 05:40:20;;;;;;;5.22;2.05;;;1.20;99.90;;;;;;5035585;28;20029;-81
2023/01/19 05:42:46;;;;;;;3.45;1.70;;;1.20;99.90;;;;;;5029529;28;20037;-81
2023/01/19 05:45:12;;;;;;;3.00;1.13;;;1.20;99.90;;;;;;5028187;28;20045;-81
2023/01/19 05:47:38;;;;;;;2.85;1.23;;;1.20;99.90;;;;;;5028109;28;20068;-81
2023/01/19 05:50:04;;;;;;;3.28;1.08;;;1.20;99.90;;;;;;5019638;28;20490;-80
2023/01/19 05:52:30;;;;;;;3.75;0.80;;;1.20;99.90;;;;;;5020654;28;20034;-81
2023/01/19 05:54:56;;;;;;;2.67;0.77;;;1.20;99.90;;;;;;5022548;28;20108;-80
2023/01/19 05:57:22;;;;;;;4.78;1.00;;;1.20;99.90;;;;;;5011896;28;20470;-81
2023/01/19 05:59:48;;;;;;;4.40;0.80;;;1.20;99.90;;;;;;5012622;28;20064;-81
2023/01/19 06:02:13;;;;;;;4.78;0.80;;;1.20;99.90;;;;;;5022484;28;20036;-79
2023/01/19 06:04:39;;;;;;;2.13;0.50;;;1.20;99.90;;;;;;5024061;28;20256;-80
2023/01/19 06:07:05;;;;;;;3.45;0.50;;;1.20;99.90;;;;;;5020416;28;20028;-80
2023/01/19 06:09:32;;;;;;;2.13;0.55;;;1.20;99.90;;;;;;5011891;28;20033;-81
2023/01/19 06:11:58;;;;;;;3.15;0.57;;;1.20;99.90;;;;;;5005254;28;20524;-80
2023/01/19 06:14:25;;;;;;;2.83;0.50;;;1.20;99.90;;;;;;5020008;28;20038;-80
2023/01/19 06:16:51;;;;;;;2.90;0.90;;;1.30;99.90;;;;;;5026281;28;20054;-80
2023/01/19 06:19:16;;;;;;;2.83;0.40;;;1.30;99.90;;;;;;5018864;28;20034;-81
2023/01/19 06:21:48;;;;;;;2.72;0.40;;;1.30;99.90;;;;;;5018906;28;20428;-80
2023/01/19 06:24:15;;;;;;;3.08;0.40;;;1.30;99.90;;;;;;5006539;28;20037;-80
2023/01/19 06:26:44;;;;;;;3.45;0.40;;;1.30;99.90;;;;;;5022714;28;20036;-81
2023/01/19 06:29:11;;;;;;;2.75;0.40;;;1.30;99.90;;;;;;5026304;28;20038;-80
2023/01/19 06:31:37;;;;;;;2.60;0.30;;;1.30;99.90;;;;;;5024735;28;20061;-81
2023/01/19 06:34:03;;;;;;;2.78;0.65;;;1.30;99.90;;;;;;5026212;28;20029;-79
2023/01/19 06:36:28;;;;;;;1.73;0.30;;;1.40;99.90;;;;;;5007510;28;20445;-80
2023/01/19 06:38:54;;;;;;;1.75;0.30;;;1.40;99.90;;;;;;5041841;28;20435;-80
2023/01/19 06:41:20;;;;;;;3.38;0.40;;;1.50;99.90;;;;;;5025968;28;20437;-80
2023/01/19 06:43:45;;;;;;;3.08;0.43;;;1.50;99.90;;;;;;5025724;28;20047;-80
2023/01/19 06:46:12;;;;;;;4.18;0.47;;;1.50;99.90;;;;;;5026641;28;20029;-80
2023/01/19 06:48:38;;;;;;;4.88;0.40;;;1.50;99.90;;;;;;5025282;28;20064;-80
2023/01/19 06:51:05;;;;;;;4.30;0.40;;;1.50;99.90;;;;;;5023538;28;21016;-80
2023/01/19 06:53:31;;;;;;;4.47;0.40;;;1.60;99.90;;;;;;5020099;28;20026;-80
2023/01/19 06:56:01;;;;;;;4.35;0.30;;;1.50;99.90;;;;;;5035545;28;20021;-79
2023/01/19 06:58:27;;;;;;;4.18;0.40;;;1.50;99.90;;;;;;5021708;28;20061;-80
2023/01/19 07:00:53;;;;;;;3.58;0.60;;;1.60;99.90;;;;;;5020735;28;20045;-80
2023/01/19 07:03:21;;;;;;;3.80;0.43;;;1.50;99.90;;;;;;5016066;28;20030;-80
2023/01/19 07:05:50;;;;;;;4.15;0.40;;;1.60;99.90;;;;;;5026143;28;20382;-80
2023/01/19 07:08:16;;;;;;;6.53;0.40;;;1.60;99.90;;;;;;5018216;28;20053;-79
2023/01/19 07:10:42;;;;;;;2.83;0.30;;;1.60;99.90;;;;;;5019839;28;20025;-80
2023/01/19 07:13:08;;;;;;;5.75;0.80;;;1.60;99.90;;;;;;5017600;28;20044;-80
2023/01/19 07:15:34;;;;;;;7.03;0.50;;;1.60;99.90;;;;;;5006253;28;20112;-79
2023/01/19 07:18:04;;;;;;;5.00;0.50;;;1.60;99.90;;;;;;5019874;28;20493;-81
2023/01/19 07:20:29;;;;;;;;;;;1.60;99.90;;;;;;5027498;28;20037;-80
2023/01/19 07:22:56;;;;;;;3.25;0.50;;;1.60;99.90;;;;;;5035501;28;19913;-80
2023/01/19 07:25:22;;;;;;;7.80;0.90;;;1.70;99.90;;;;;;5019477;28;20108;-79
2023/01/19 07:27:47;;;;;;;5.95;0.70;;;1.70;99.90;;;;;;5018304;28;20156;-80
2023/01/19 07:30:14;;;;;;;5.60;0.60;;;1.70;99.90;;;;;;5019897;28;20021;-79
2023/01/19 07:32:41;;;;;;;4.28;0.77;;;1.70;99.90;;;;;;5019417;28;20026;-80
2023/01/19 07:35:08;;;;;;;3.97;0.80;;;1.60;99.90;;;;;;5021253;28;20042;-79
2023/01/19 07:37:34;;;;;;;7.63;2.17;;;1.60;99.90;;;;;;5018511;28;20037;-80
2023/01/19 07:40:00;;;;;;;5.60;0.73;;;1.70;99.90;;;;;;5017041;28;20116;-80
2023/01/19 07:42:25;;;;;;;4.32;0.98;;;1.60;99.90;;;;;;5009655;28;20076;-80
2023/01/19 07:44:52;;;;;;;7.28;1.10;;;1.70;99.90;;;;;;5034618;28;20029;-80
2023/01/19 07:47:17;;;;;;;5.57;1.23;;;1.70;99.90;;;;;;5026123;28;20146;-80
2023/01/19 07:49:43;;;;;;;3.83;0.88;;;1.70;99.90;;;;;;5035039;28;20140;-80
2023/01/19 07:52:09;;;;;;;7.82;1.15;;;1.70;99.90;;;;;;5016487;28;20390;-80
2023/01/19 07:54:35;;;;;;;7.38;1.00;;;1.70;99.90;;;;;;5017388;28;20032;-79
2023/01/19 07:57:01;;;;;;;9.20;1.30;;;1.80;99.90;;;;;;5020245;28;20087;-79
2023/01/19 07:59:31;;;;;;;4.07;1.25;;;1.80;99.90;;;;;;5019214;28;20024;-79
2023/01/19 08:01:58;;;;;;;6.15;1.40;;;1.80;99.90;;;;;;5023430;28;20053;-79
2023/01/19 08:04:25;;;;;;;7.63;1.40;;;1.90;99.90;;;;;;5034651;28;20058;-80
2023/01/19 08:06:51;;;;;;;7.05;1.30;;;1.80;99.90;;;;;;5017832;28;20029;-80
2023/01/19 08:09:17;;;;;;;4.53;1.10;;;1.80;99.90;;;;;;5021928;28;20030;-79
2023/01/19 08:11:42;;;;;;;10.05;1.75;;;1.80;99.90;;;;;;5025703;28;20025;-79
2023/01/19 08:14:08;;;;;;;4.90;1.25;;;1.80;99.90;;;;;;5036765;28;20034;-79
2023/01/19 08:16:35;;;;;;;5.05;0.93;;;1.70;99.90;;;;;;5019003;28;20033;-79
2023/01/19 08:19:01;;;;;;;3.47;0.80;;;1.70;99.90;;;;;;5016032;28;20500;-80
2023/01/19 08:21:27;;;;;;;7.30;2.50;;;1.60;99.90;;;;;;5018566;28;20021;-80
2023/01/19 08:23:53;;;;;;;3.60;1.00;;;1.70;99.90;;;;;;5020103;28;20440;-80
2023/01/19 08:26:26;;;;;;;6.05;1.00;;;1.70;99.90;;;;;;5032001;28;20029;-80
2023/01/19 08:28:53;;;;;;;7.50;1.70;;;1.70;99.90;;;;;;5031355;28;20053;-80
2023/01/19 08:31:18;;;;;;;3.45;1.15;;;1.70;99.90;;;;;;5019117;28;20038;-80
2023/01/19 08:33:44;;;;;;;5.05;1.70;;;1.70;99.90;;;;;;5007095;28;20068;-78
2023/01/19 08:36:10;;;;;;;4.70;2.70;;;1.70;99.90;;;;;;5021531;28;20040;-79
2023/01/19 08:38:38;;;;;;;9.38;2.60;;;1.70;99.90;;;;;;5024057;28;20033;-79
2023/01/19 08:41:04;;;;;;;7.50;2.47;;;1.80;99.90;;;;;;5016508;28;20037;-80
2023/01/19 08:43:29;;;;;;;5.53;1.90;;;1.70;99.90;;;;;;5032553;28;20040;-80
2023/01/19 08:45:55;;;;;;;7.18;2.90;;;1.80;99.90;;;;;;5015799;28;20552;-79
2023/01/19 08:48:23;;;;;;;9.32;2.88;;;1.80;99.90;;;;;;5017944;28;20056;-80
2023/01/19 08:50:50;;;;;;;6.65;3.60;;;1.80;99.90;;;;;;5018235;28;20025;-79
2023/01/19 08:53:18;;;;;;;8.80;4.75;;;1.90;99.90;;;;;;5033840;28;20037;-78
2023/01/19 08:55:43;;;;;;;9.98;4.38;;;1.90;99.90;;;;;;5015908;28;20332;-79
2023/01/19 08:58:09;;;;;;;7.82;4.13;;;1.90;99.90;;;;;;5020290;28;20213;-80
2023/01/19 09:00:39;;;;;;;13.45;4.82;;;1.90;99.90;;;;;;5018510;28;20084;-79
2023/01/19 09:03:08;;;;;;;11.00;5.38;;;1.90;99.90;;;;;;5025120;28;20396;-79
2023/01/19 09:05:37;;;;;;;9.32;4.47;;;1.90;99.90;;;;;;5029567;28;20038;-79
2023/01/19 09:08:13;;;;;;;8.07;3.80;;;1.90;99.90;;;;;;5017679;28;20045;-80
2023/01/19 09:10:47;;;;;;;5.72;2.35;;;1.90;99.90;;;;;;5033817;28;20285;-80
2023/01/19 09:13:14;;;;;;;3.00;1.20;;;1.90;99.90;;;;;;5029661;28;20037;-79
2023/01/19 09:15:41;;;;;;;2.83;0.95;;;2.00;99.90;;;;;;5031521;28;20272;-79
2023/01/19 09:18:12;;;;;;;12.15;4.28;;;2.00;99.90;;;;;;5031060;28;20026;-79
2023/01/19 09:20:41;;;;;;;9.88;4.00;;;2.00;99.90;;;;;;5033133;28;20111;-79
2023/01/19 09:23:11;;;;;;;10.32;5.65;;;2.00;99.90;;;;;;5013743;28;20040;-79
2023/01/19 09:25:38;;;;;;;10.38;5.47;;;2.10;99.90;;;;;;5031203;28;20505;-80
2023/01/19 09:28:10;;;;;;;10.48;4.60;;;2.20;99.90;;;;;;5016281;28;20029;-80
2023/01/19 09:30:37;;;;;;;7.28;4.32;;;2.20;99.90;;;;;;5002651;28;20045;-79
2023/01/19 09:33:05;;;;;;;8.85;5.10;;;2.20;99.90;;;;;;5020490;28;20064;-79
2023/01/19 09:35:32;;;;;;;7.88;5.15;;;2.20;99.90;;;;;;5017636;28;20033;-80
2023/01/19 09:37:58;;;;;;;12.45;5.20;;;2.30;99.90;;;;;;5025139;28;20025;-80
2023/01/19 09:40:24;;;;;;;8.95;4.45;;;2.40;99.90;;;;;;5015570;28;20026;-80
2023/01/19 09:43:10;;;;;;;6.25;3.28;;;2.50;99.90;;;;;;5017403;28;20459;-80
2023/01/19 09:45:49;;;;;;;12.25;6.00;;;2.60;99.90;;;;;;5006933;28;20038;-79
2023/01/19 09:48:23;;;;;;;10.18;4.88;;;2.60;99.90;;;;;;5033330;28;20069;-79
2023/01/19 09:50:49;;;;;;;7.93;3.72;;;2.60;99.90;;;;;;5023385;28;20377;-80
2023/01/19 09:53:24;;;;;;;9.82;5.05;;;2.80;99.90;;;;;;5025759;28;20030;-80
2023/01/19 09:55:50;;;;;;;14.10;5.15;;;2.80;99.90;;;;;;5036185;28;20528;-80
2023/01/19 09:58:17;;;;;;;13.63;5.30;;;2.90;99.90;;;;;;4999901;28;20126;-79
2023/01/19 10:00:51;;;;;;;15.32;5.50;;;2.90;99.90;;;;;;5019527;28;20144;-80
2023/01/19 10:03:19;;;;;;;8.48;3.97;;;3.00;99.90;;;;;;5019591;28;20091;-80
2023/01/19 10:06:00;;;;;;;11.75;5.60;;;3.10;99.90;;;;;;5032328;28;20033;-80
2023/01/19 10:08:47;;;;;;;8.52;4.70;;;3.20;99.90;;;;;;5016796;28;20022;-79
2023/01/19 10:11:48;;;;;;;5.93;2.78;;;3.20;99.90;;;;;;4998483;28;20036;-80
2023/01/19 10:14:58;;;;;;;5.53;3.28;;;3.20;99.90;;;;;;5012438;28;20033;-79
2023/01/19 10:17:42;;;;;;;12.10;2.97;;;3.20;99.90;;;;;;4992546;28;20062;-79
2023/01/19 10:20:18;;;;;;;10.10;4.63;;;3.20;99.90;;;;;;5006339;28;20505;-80
2023/01/19 10:22:47;;;;;;;10.25;4.07;;;3.20;99.90;;;;;;5014597;28;20080;-79
2023/01/19 10:25:19;;;;;;;7.03;3.60;;;3.40;99.90;;;;;;5027476;28;20097;-79
2023/01/19 10:27:45;;;;;;;9.15;3.33;;;3.80;99.90;;;;;;5020734;28;20045;-79
2023/01/19 10:30:21;;;;;;;7.75;2.13;;;3.80;99.90;;;;;;5018275;28;20474;-80
2023/01/19 10:32:47;;;;;;;7.55;2.00;;;3.80;99.90;;;;;;5030859;28;20068;-80
2023/01/19 10:35:23;;;;;;;5.68;2.22;;;3.80;99.90;;;;;;5026004;28;20513;-79
2023/01/19 10:38:00;;;;;;;8.55;2.22;;;3.70;99.90;;;;;;5021582;28;20389;-79
2023/01/19 10:40:32;;;;;;;8.32;1.13;;;3.70;99.90;;;;;;5032514;28;20082;-79
2023/01/19 10:42:58;;;;;;;10.90;1.33;;;3.80;99.90;;;;;;5021011;28;20100;-79
2023/01/19 10:45:28;;;;;;;11.15;1.58;;;3.70;99.90;;;;;;5015704;28;20565;-79
2023/01/19 10:47:57;;;;;;;10.52;1.98;;;3.60;99.90;;;;;;5036250;28;20064;-79
2023/01/19 10:50:23;;;;;;;5.15;1.10;;;3.60;99.90;;;;;;5022264;28;20132;-78
2023/01/19 10:52:54;;;;;;;5.30;1.10;;;3.50;99.90;;;;;;5034882;28;20104;-79
2023/01/19 10:55:33;;;;;;;13.02;1.45;;;3.40;99.90;;;;;;5034993;28;20547;-80
2023/01/19 10:57:59;;;;;;;7.45;1.17;;;3.40;99.90;;;;;;5032230;28;20060;-80
2023/01/19 11:00:30;;;;;;;8.05;1.00;;;3.40;99.90;;;;;;5034739;28;20091;-79
2023/01/19 11:02:56;;;;;;;7.88;0.70;;;3.50;99.90;;;;;;5024899;28;20029;-79
2023/01/19 11:05:24;;;;;;;6.43;0.70;;;3.60;99.90;;;;;;5041465;28;20030;-80
2023/01/19 11:07:50;;;;;;;5.80;1.30;;;3.70;99.90;;;;;;5026910;28;20061;-80
2023/01/19 11:10:16;;;;;;;3.97;0.82;;;3.90;99.90;;;;;;5026909;28;20033;-80
2023/01/19 11:12:59;;;;;;;5.35;1.95;;;4.10;99.90;;;;;;5019521;28;20061;-79
2023/01/19 11:15:59;;;;;;;6.72;2.47;;;4.10;99.90;;;;;;5018209;28;20052;-80
2023/01/19 11:18:31;;;;;;;9.27;2.85;;;4.30;99.90;;;;;;5007986;28;20077;-80
2023/01/19 11:21:02;;;;;;;9.75;3.95;;;4.40;99.90;;;;;;5018236;28;20136;-80
2023/01/19 11:23:33;;;;;;;11.05;3.58;;;4.50;99.90;;;;;;5036499;28;20048;-79
2023/01/19 11:26:01;;;;;;;15.60;7.20;;;4.50;99.90;;;;;;5018717;28;20466;-79
2023/01/19 11:28:31;;;;;;;16.50;7.95;;;4.30;99.90;;;;;;5022617;28;20467;-79
2023/01/19 11:30:58;;;;;;;;;;;4.40;99.90;;;;;;5031379;28;20040;-79
2023/01/19 11:33:47;;;;;;;18.23;8.82;;;4.50;99.90;;;;;;5032857;28;19936;-79
2023/01/19 11:36:19;;;;;;;20.73;9.15;;;4.50;99.90;;;;;;5009093;28;20087;-80
2023/01/19 11:38:50;;;;;;;16.08;8.20;;;4.40;99.90;;;;;;5005263;28;21948;-80
2023/01/19 11:41:37;;;;;;;11.93;6.75;;;4.50;99.90;;;;;;5016181;28;20025;-79
2023/01/19 11:44:12;;;;;;;14.98;7.25;;;4.60;99.90;;;;;;5036373;28;20041;-79
2023/01/19 11:46:39;;;;;;;16.38;8.63;;;4.50;99.90;;;;;;5026812;28;20029;-79
2023/01/19 11:49:13;;;;;;;12.60;6.80;;;4.50;99.90;;;;;;5020522;28;20072;-80
2023/01/19 11:52:22;;;;;;;15.68;7.97;;;4.70;99.90;;;;;;5016008;28;20033;-78
2023/01/19 11:55:05;;;;;;;20.65;10.43;;;4.60;99.90;;;;;;5017791;28;20022;-79
2023/01/19 11:57:31;;;;;;;15.63;8.75;;;4.60;99.90;;;;;;5031260;28;20033;-78
2023/01/19 12:00:02;;;;;;;16.48;8.30;;;4.70;99.90;;;;;;5011452;28;20069;-80
2023/01/19 12:02:45;;;;;;;17.45;8.45;;;4.80;99.90;;;;;;5019317;28;20061;-79
2023/01/19 12:05:18;;;;;;;11.60;7.00;;;4.90;99.90;;;;;;5030049;28;20483;-81
2023/01/19 12:07:47;;;;;;;16.40;7.53;;;4.80;99.90;;;;;;5019679;28;20030;-79
2023/01/19 12:10:36;;;;;;;13.07;7.07;;;4.80;99.90;;;;;;5020799;28;20040;-80
2023/01/19 12:13:02;;;;;;;18.08;8.30;;;4.80;99.90;;;;;;5034596;28;20087;-80
2023/01/19 12:15:37;;;;;;;16.17;8.98;;;4.90;99.90;;;;;;5018357;28;20144;-80
2023/01/19 12:18:06;;;;;;;18.75;9.30;;;5.00;99.90;;;;;;5017647;28;20030;-80
2023/01/19 12:20:43;;;;;;;15.70;7.28;;;4.80;99.90;;;;;;5018172;28;20026;-81
2023/01/19 12:23:32;;;;;;;16.67;8.90;;;4.80;99.90;;;;;;5015890;28;20037;-80
2023/01/19 12:26:14;;;;;;;16.45;8.70;;;4.80;99.90;;;;;;4969918;28;20415;-80
2023/01/19 12:28:43;;;;;;;16.23;7.28;;;4.80;99.90;;;;;;4984096;28;20062;-80
2023/01/19 12:31:12;;;;;;;15.13;9.48;;;4.90;99.90;;;;;;4966374;28;20551;-80
2023/01/19 12:33:39;;;;;;;18.48;9.40;;;4.80;99.90;;;;;;4964602;28;20054;-80
2023/01/19 12:36:27;;;;;;;21.55;11.98;;;4.70;99.90;;;;;;4985869;28;20467;-80
2023/01/19 12:38:54;;;;;;;15.82;10.00;;;4.70;99.90;;;;;;4965459;28;20031;-80
2023/01/19 12:41:35;;;;;;;16.42;9.82;;;4.80;99.90;;;;;;4965740;28;20031;-80
2023/01/19 12:44:10;;;;;;;14.63;8.48;;;4.80;99.90;;;;;;4961423;28;20092;-80
2023/01/19 12:46:46;;;;;;;17.75;9.63;;;4.90;99.90;;;;;;4984952;28;20036;-80
2023/01/19 12:49:26;;;;;;;14.48;9.32;;;5.20;99.90;;;;;;4954538;28;20078;-81
2023/01/19 12:52:20;;;;;;;21.38;11.75;;;5.00;99.90;;;;;;4966053;28;20035;-80
2023/01/19 12:55:13;;;;;;;15.07;9.25;;;5.00;99.90;;;;;;4966271;28;20049;-80
2023/01/19 12:57:53;;;;;;;20.73;8.60;;;5.10;99.90;;;;;;4962903;28;20071;-80
2023/01/19 13:00:29;;;;;;;15.60;8.88;;;5.10;99.90;;;;;;4960865;28;20038;-81
2023/01/19 13:02:57;;;;;;;18.05;7.75;;;5.10;99.90;;;;;;4959737;28;20093;-81
2023/01/19 13:05:38;;;;;;;22.65;9.00;;;5.00;99.90;;;;;;4969263;28;20045;-80
2023/01/19 13:08:12;;;;;;;22.90;8.85;;;4.80;99.90;;;;;;4979376;28;20050;-81
2023/01/19 13:11:08;;;;;;;16.48;7.38;;;4.90;99.90;;;;;;4978267;28;20034;-80
2023/01/19 13:13:47;;;;;;;11.05;5.75;;;4.90;99.90;;;;;;4978529;28;20391;-82